sensor_id;sensor_type;location;lat;lon;timestamp;temperature;humidity
21425;DHT22;10873;51.132;16.848;2023-02-15T00:00:05;23.90;44.80
21425;DHT22;10873;51.132;16.848;2023-02-15T00:02:52;23.80;44.80
21425;DHT22;10873;51.132;16.848;2023-02-15T00:05:18;23.80;44.80
21425;DHT22;10873;51.132;16.848;2023-02-15T00:07:44;23.80;44.70
21425;DHT22;10873;51.132;16.848;2023-02-15T00:10:11;23.80;44.80
21425;DHT22;10873;51.132;16.848;2023-02-15T00:12:37;23.80;44.80
21425;DHT22;10873;51.132;16.848;2023-02-15T00:15:04;23.90;44.90
21425;DHT22;10873;51.132;16.848;2023-02-15T00:17:30;23.90;44.90
21425;DHT22;10873;51.132;16.848;2023-02-15T00:19:56;23.80;44.70
21425;DHT22;10873;51.132;16.848;2023-02-15T00:22:22;23.80;44.60
21425;DHT22;10873;51.132;16.848;2023-02-15T00:24:48;23.80;44.60
21425;DHT22;10873;51.132;16.848;2023-02-15T00:27:17;23.80;44.60
21425;DHT22;10873;51.132;16.848;2023-02-15T00:29:43;23.80;44.50
21425;DHT22;10873;51.132;16.848;2023-02-15T00:32:09;23.80;44.50
21425;DHT22;10873;51.132;16.848;2023-02-15T00:34:35;23.80;44.50
21425;DHT22;10873;51.132;16.848;2023-02-15T00:37:01;23.80;44.50
21425;DHT22;10873;51.132;16.848;2023-02-15T00:39:27;23.90;44.60
21425;DHT22;10873;51.132;16.848;2023-02-15T00:41:54;23.90;44.60
21425;DHT22;10873;51.132;16.848;2023-02-15T00:44:22;23.90;44.50
21425;DHT22;10873;51.132;16.848;2023-02-15T00:46:48;23.90;44.40
21425;DHT22;10873;51.132;16.848;2023-02-15T00:49:14;23.90;44.40
21425;DHT22;10873;51.132;16.848;2023-02-15T00:51:40;23.90;44.40
21425;DHT22;10873;51.132;16.848;2023-02-15T00:54:06;23.90;44.30
21425;DHT22;10873;51.132;16.848;2023-02-15T00:56:32;23.90;44.30
21425;DHT22;10873;51.132;16.848;2023-02-15T00:58:58;23.90;44.30
21425;DHT22;10873;51.132;16.848;2023-02-15T01:01:25;23.90;44.30
21425;DHT22;10873;51.132;16.848;2023-02-15T01:03:51;23.90;44.40
21425;DHT22;10873;51.132;16.848;2023-02-15T01:06:18;23.90;44.40
21425;DHT22;10873;51.132;16.848;2023-02-15T01:08:44;23.90;44.40
21425;DHT22;10873;51.132;16.848;2023-02-15T01:11:13;23.90;44.40
21425;DHT22;10873;51.132;16.848;2023-02-15T01:13:39;23.90;44.30
21425;DHT22;10873;51.132;16.848;2023-02-15T01:16:06;23.90;44.20
21425;DHT22;10873;51.132;16.848;2023-02-15T01:18:34;23.90;44.20
21425;DHT22;10873;51.132;16.848;2023-02-15T01:21:01;23.90;44.10
21425;DHT22;10873;51.132;16.848;2023-02-15T01:23:33;23.90;44.10
21425;DHT22;10873;51.132;16.848;2023-02-15T01:26:01;23.90;44.00
21425;DHT22;10873;51.132;16.848;2023-02-15T01:28:27;23.90;44.00
21425;DHT22;10873;51.132;16.848;2023-02-15T01:30:53;23.90;44.10
21425;DHT22;10873;51.132;16.848;2023-02-15T01:33:19;23.90;44.10
21425;DHT22;10873;51.132;16.848;2023-02-15T01:35:46;23.90;44.10
21425;DHT22;10873;51.132;16.848;2023-02-15T01:38:12;23.90;44.10
21425;DHT22;10873;51.132;16.848;2023-02-15T01:40:39;23.90;44.20
21425;DHT22;10873;51.132;16.848;2023-02-15T01:43:09;23.90;44.00
21425;DHT22;10873;51.132;16.848;2023-02-15T01:45:36;23.90;44.00
21425;DHT22;10873;51.132;16.848;2023-02-15T01:48:05;23.90;43.90
21425;DHT22;10873;51.132;16.848;2023-02-15T01:50:34;23.90;43.90
21425;DHT22;10873;51.132;16.848;2023-02-15T01:53:07;23.90;43.80
21425;DHT22;10873;51.132;16.848;2023-02-15T01:55:40;23.90;43.90
21425;DHT22;10873;51.132;16.848;2023-02-15T01:58:07;23.90;43.80
21425;DHT22;10873;51.132;16.848;2023-02-15T02:00:34;23.90;43.90
21425;DHT22;10873;51.132;16.848;2023-02-15T02:03:01;23.90;44.00
21425;DHT22;10873;51.132;16.848;2023-02-15T02:05:29;23.90;44.00
21425;DHT22;10873;51.132;16.848;2023-02-15T02:07:58;23.90;43.90
21425;DHT22;10873;51.132;16.848;2023-02-15T02:10:26;23.90;43.80
21425;DHT22;10873;51.132;16.848;2023-02-15T02:12:56;24.00;43.80
21425;DHT22;10873;51.132;16.848;2023-02-15T02:15:28;23.90;43.80
21425;DHT22;10873;51.132;16.848;2023-02-15T02:18:05;23.90;43.70
21425;DHT22;10873;51.132;16.848;2023-02-15T02:21:30;23.90;43.60
21425;DHT22;10873;51.132;16.848;2023-02-15T02:27:19;23.90;43.70
21425;DHT22;10873;51.132;16.848;2023-02-15T02:33:21;23.90;43.70
21425;DHT22;10873;51.132;16.848;2023-02-15T02:35:58;24.00;43.70
21425;DHT22;10873;51.132;16.848;2023-02-15T02:38:34;24.00;43.60
21425;DHT22;10873;51.132;16.848;2023-02-15T02:41:13;23.90;43.50
21425;DHT22;10873;51.132;16.848;2023-02-15T02:43:48;24.00;43.60
21425;DHT22;10873;51.132;16.848;2023-02-15T02:46:19;24.00;43.50
21425;DHT22;10873;51.132;16.848;2023-02-15T02:48:48;23.90;43.40
21425;DHT22;10873;51.132;16.848;2023-02-15T02:51:15;23.90;43.40
21425;DHT22;10873;51.132;16.848;2023-02-15T02:53:49;24.00;43.40
21425;DHT22;10873;51.132;16.848;2023-02-15T02:56:21;24.00;43.50
21425;DHT22;10873;51.132;16.848;2023-02-15T02:58:50;23.90;43.50
21425;DHT22;10873;51.132;16.848;2023-02-15T03:01:20;24.00;43.60
21425;DHT22;10873;51.132;16.848;2023-02-15T03:03:50;24.00;43.70
21425;DHT22;10873;51.132;16.848;2023-02-15T03:06:20;24.00;43.60
21425;DHT22;10873;51.132;16.848;2023-02-15T03:08:53;23.90;43.40
21425;DHT22;10873;51.132;16.848;2023-02-15T03:11:20;23.90;43.40
21425;DHT22;10873;51.132;16.848;2023-02-15T03:13:48;24.00;43.40
21425;DHT22;10873;51.132;16.848;2023-02-15T03:16:16;24.00;43.40
21425;DHT22;10873;51.132;16.848;2023-02-15T03:18:55;23.90;43.30
21425;DHT22;10873;51.132;16.848;2023-02-15T03:21:27;24.00;43.30
21425;DHT22;10873;51.132;16.848;2023-02-15T03:23:59;23.90;43.20
21425;DHT22;10873;51.132;16.848;2023-02-15T03:26:27;23.90;43.20
21425;DHT22;10873;51.132;16.848;2023-02-15T03:28:55;23.90;43.30
21425;DHT22;10873;51.132;16.848;2023-02-15T03:31:26;24.00;43.40
21425;DHT22;10873;51.132;16.848;2023-02-15T03:33:58;23.90;43.30
21425;DHT22;10873;51.132;16.848;2023-02-15T03:36:30;23.90;43.20
21425;DHT22;10873;51.132;16.848;2023-02-15T03:39:05;23.90;43.20
21425;DHT22;10873;51.132;16.848;2023-02-15T03:41:39;24.00;43.20
21425;DHT22;10873;51.132;16.848;2023-02-15T03:44:11;24.00;43.80
21425;DHT22;10873;51.132;16.848;2023-02-15T03:46:43;23.90;43.00
21425;DHT22;10873;51.132;16.848;2023-02-15T03:49:17;23.90;43.00
21425;DHT22;10873;51.132;16.848;2023-02-15T03:51:46;24.00;43.00
21425;DHT22;10873;51.132;16.848;2023-02-15T03:54:17;24.00;43.00
21425;DHT22;10873;51.132;16.848;2023-02-15T03:57:03;24.00;43.00
21425;DHT22;10873;51.132;16.848;2023-02-15T03:59:48;23.90;43.00
21425;DHT22;10873;51.132;16.848;2023-02-15T04:02:37;24.00;43.10
21425;DHT22;10873;51.132;16.848;2023-02-15T04:05:06;24.00;43.10
21425;DHT22;10873;51.132;16.848;2023-02-15T04:07:32;24.00;43.70
21425;DHT22;10873;51.132;16.848;2023-02-15T04:09:58;23.90;42.90
21425;DHT22;10873;51.132;16.848;2023-02-15T04:12:42;23.90;42.90
21425;DHT22;10873;51.132;16.848;2023-02-15T04:15:12;23.90;42.80
21425;DHT22;10873;51.132;16.848;2023-02-15T04:17:56;24.00;42.90
21425;DHT22;10873;51.132;16.848;2023-02-15T04:20:24;24.00;42.80
21425;DHT22;10873;51.132;16.848;2023-02-15T04:23:08;23.90;42.70
21425;DHT22;10873;51.132;16.848;2023-02-15T04:25:53;23.90;42.70
21425;DHT22;10873;51.132;16.848;2023-02-15T04:28:19;23.90;42.80
21425;DHT22;10873;51.132;16.848;2023-02-15T04:30:46;24.00;42.90
21425;DHT22;10873;51.132;16.848;2023-02-15T04:33:12;24.00;42.90
21425;DHT22;10873;51.132;16.848;2023-02-15T04:35:40;24.00;42.90
21425;DHT22;10873;51.132;16.848;2023-02-15T04:38:06;23.90;42.80
21425;DHT22;10873;51.132;16.848;2023-02-15T04:40:33;24.00;42.70
21425;DHT22;10873;51.132;16.848;2023-02-15T04:42:59;24.00;42.70
21425;DHT22;10873;51.132;16.848;2023-02-15T04:45:26;24.00;42.70
21425;DHT22;10873;51.132;16.848;2023-02-15T04:47:53;24.00;42.70
21425;DHT22;10873;51.132;16.848;2023-02-15T04:50:20;24.00;42.70
21425;DHT22;10873;51.132;16.848;2023-02-15T04:59:24;24.00;42.60
21425;DHT22;10873;51.132;16.848;2023-02-15T05:01:50;24.00;42.70
21425;DHT22;10873;51.132;16.848;2023-02-15T05:04:16;24.00;42.70
21425;DHT22;10873;51.132;16.848;2023-02-15T05:06:43;24.00;42.70
21425;DHT22;10873;51.132;16.848;2023-02-15T05:09:09;24.00;42.80
21425;DHT22;10873;51.132;16.848;2023-02-15T05:11:37;24.00;42.70
21425;DHT22;10873;51.132;16.848;2023-02-15T05:14:03;24.00;42.70
21425;DHT22;10873;51.132;16.848;2023-02-15T05:16:29;24.00;42.70
21425;DHT22;10873;51.132;16.848;2023-02-15T05:18:55;24.00;42.70
21425;DHT22;10873;51.132;16.848;2023-02-15T05:21:21;24.00;42.60
21425;DHT22;10873;51.132;16.848;2023-02-15T05:23:47;24.00;42.60
21425;DHT22;10873;51.132;16.848;2023-02-15T05:26:17;24.00;42.50
21425;DHT22;10873;51.132;16.848;2023-02-15T05:29:04;24.00;42.50
21425;DHT22;10873;51.132;16.848;2023-02-15T05:31:30;24.00;42.60
21425;DHT22;10873;51.132;16.848;2023-02-15T05:33:57;24.00;42.50
21425;DHT22;10873;51.132;16.848;2023-02-15T05:36:23;24.00;42.50
21425;DHT22;10873;51.132;16.848;2023-02-15T05:38:49;24.00;42.60
21425;DHT22;10873;51.132;16.848;2023-02-15T05:41:15;24.00;42.60
21425;DHT22;10873;51.132;16.848;2023-02-15T05:43:41;24.00;42.60
21425;DHT22;10873;51.132;16.848;2023-02-15T05:46:09;24.00;42.60
21425;DHT22;10873;51.132;16.848;2023-02-15T05:48:35;24.00;42.60
21425;DHT22;10873;51.132;16.848;2023-02-15T05:51:04;24.00;42.60
21425;DHT22;10873;51.132;16.848;2023-02-15T05:53:32;23.90;42.70
21425;DHT22;10873;51.132;16.848;2023-02-15T05:55:58;24.00;42.70
21425;DHT22;10873;51.132;16.848;2023-02-15T05:58:25;24.00;42.80
21425;DHT22;10873;51.132;16.848;2023-02-15T06:00:51;23.90;42.70
21425;DHT22;10873;51.132;16.848;2023-02-15T06:03:18;24.00;42.80
21425;DHT22;10873;51.132;16.848;2023-02-15T06:05:44;23.90;42.80
21425;DHT22;10873;51.132;16.848;2023-02-15T06:08:10;23.90;42.80
21425;DHT22;10873;51.132;16.848;2023-02-15T06:10:36;24.00;42.90
21425;DHT22;10873;51.132;16.848;2023-02-15T06:13:02;24.00;42.90
21425;DHT22;10873;51.132;16.848;2023-02-15T06:15:28;24.00;43.00
21425;DHT22;10873;51.132;16.848;2023-02-15T06:17:54;24.00;43.00
21425;DHT22;10873;51.132;16.848;2023-02-15T06:20:22;23.90;43.10
21425;DHT22;10873;51.132;16.848;2023-02-15T06:22:48;23.90;43.10
21425;DHT22;10873;51.132;16.848;2023-02-15T06:25:14;23.90;43.20
21425;DHT22;10873;51.132;16.848;2023-02-15T06:27:41;23.90;44.00
21425;DHT22;10873;51.132;16.848;2023-02-15T06:30:09;23.90;43.30
21425;DHT22;10873;51.132;16.848;2023-02-15T06:32:35;23.90;43.40
21425;DHT22;10873;51.132;16.848;2023-02-15T06:35:01;23.90;43.50
21425;DHT22;10873;51.132;16.848;2023-02-15T06:37:29;23.90;43.40
21425;DHT22;10873;51.132;16.848;2023-02-15T06:39:55;23.90;43.40
21425;DHT22;10873;51.132;16.848;2023-02-15T06:42:21;23.90;43.40
21425;DHT22;10873;51.132;16.848;2023-02-15T06:44:47;24.00;43.50
21425;DHT22;10873;51.132;16.848;2023-02-15T06:47:13;23.90;43.40
21425;DHT22;10873;51.132;16.848;2023-02-15T06:49:40;23.90;43.40
21425;DHT22;10873;51.132;16.848;2023-02-15T06:52:05;23.90;43.40
21425;DHT22;10873;51.132;16.848;2023-02-15T06:54:33;23.90;43.40
21425;DHT22;10873;51.132;16.848;2023-02-15T06:56:59;23.90;43.40
21425;DHT22;10873;51.132;16.848;2023-02-15T06:59:25;23.90;43.50
21425;DHT22;10873;51.132;16.848;2023-02-15T07:01:51;23.90;43.50
21425;DHT22;10873;51.132;16.848;2023-02-15T07:04:17;23.90;43.60
21425;DHT22;10873;51.132;16.848;2023-02-15T07:06:43;23.90;43.60
21425;DHT22;10873;51.132;16.848;2023-02-15T07:09:09;23.90;43.60
21425;DHT22;10873;51.132;16.848;2023-02-15T07:11:36;23.90;43.60
21425;DHT22;10873;51.132;16.848;2023-02-15T07:14:21;23.90;43.60
21425;DHT22;10873;51.132;16.848;2023-02-15T07:16:47;23.90;43.60
21425;DHT22;10873;51.132;16.848;2023-02-15T07:19:13;23.90;43.60
21425;DHT22;10873;51.132;16.848;2023-02-15T07:21:39;23.90;43.60
21425;DHT22;10873;51.132;16.848;2023-02-15T07:24:06;23.90;43.70
21425;DHT22;10873;51.132;16.848;2023-02-15T07:26:32;23.90;43.70
21425;DHT22;10873;51.132;16.848;2023-02-15T07:28:59;23.90;43.70
21425;DHT22;10873;51.132;16.848;2023-02-15T07:31:25;23.90;43.80
21425;DHT22;10873;51.132;16.848;2023-02-15T07:33:51;23.90;43.90
21425;DHT22;10873;51.132;16.848;2023-02-15T07:36:17;23.90;44.00
21425;DHT22;10873;51.132;16.848;2023-02-15T07:38:43;23.90;44.00
21425;DHT22;10873;51.132;16.848;2023-02-15T07:41:12;23.90;44.00
21425;DHT22;10873;51.132;16.848;2023-02-15T07:43:40;23.90;44.00
21425;DHT22;10873;51.132;16.848;2023-02-15T07:46:09;24.00;44.10
21425;DHT22;10873;51.132;16.848;2023-02-15T07:48:37;24.00;44.10
21425;DHT22;10873;51.132;16.848;2023-02-15T07:51:05;23.90;44.00
21425;DHT22;10873;51.132;16.848;2023-02-15T07:53:32;24.00;44.10
21425;DHT22;10873;51.132;16.848;2023-02-15T07:55:59;24.00;44.10
21425;DHT22;10873;51.132;16.848;2023-02-15T07:58:25;24.00;44.10
21425;DHT22;10873;51.132;16.848;2023-02-15T08:01:12;24.00;44.10
21425;DHT22;10873;51.132;16.848;2023-02-15T08:03:39;24.00;44.10
21425;DHT22;10873;51.132;16.848;2023-02-15T08:06:05;24.00;44.10
21425;DHT22;10873;51.132;16.848;2023-02-15T08:08:33;24.00;44.10
21425;DHT22;10873;51.132;16.848;2023-02-15T08:11:01;24.00;44.10
21425;DHT22;10873;51.132;16.848;2023-02-15T08:13:46;24.00;44.10
21425;DHT22;10873;51.132;16.848;2023-02-15T08:16:24;24.00;44.00
21425;DHT22;10873;51.132;16.848;2023-02-15T08:18:51;24.00;44.00
21425;DHT22;10873;51.132;16.848;2023-02-15T08:21:17;24.00;44.00
21425;DHT22;10873;51.132;16.848;2023-02-15T08:23:44;24.10;44.00
21425;DHT22;10873;51.132;16.848;2023-02-15T08:26:10;24.00;43.90
21425;DHT22;10873;51.132;16.848;2023-02-15T08:28:36;24.00;43.90
21425;DHT22;10873;51.132;16.848;2023-02-15T08:31:06;24.00;43.70
21425;DHT22;10873;51.132;16.848;2023-02-15T08:33:34;24.00;43.70
21425;DHT22;10873;51.132;16.848;2023-02-15T08:36:03;24.00;43.70
21425;DHT22;10873;51.132;16.848;2023-02-15T08:38:30;24.00;43.80
21425;DHT22;10873;51.132;16.848;2023-02-15T08:40:56;24.00;43.80
21425;DHT22;10873;51.132;16.848;2023-02-15T08:43:22;24.00;44.00
21425;DHT22;10873;51.132;16.848;2023-02-15T08:45:48;24.00;44.10
21425;DHT22;10873;51.132;16.848;2023-02-15T08:48:14;24.00;44.10
21425;DHT22;10873;51.132;16.848;2023-02-15T08:50:41;24.00;44.10
21425;DHT22;10873;51.132;16.848;2023-02-15T08:53:08;24.00;44.20
21425;DHT22;10873;51.132;16.848;2023-02-15T08:55:34;24.00;44.10
21425;DHT22;10873;51.132;16.848;2023-02-15T08:58:00;24.00;44.10
21425;DHT22;10873;51.132;16.848;2023-02-15T09:00:26;24.00;44.10
21425;DHT22;10873;51.132;16.848;2023-02-15T09:02:52;24.00;44.00
21425;DHT22;10873;51.132;16.848;2023-02-15T09:05:18;24.10;44.00
21425;DHT22;10873;51.132;16.848;2023-02-15T09:07:45;24.10;43.90
21425;DHT22;10873;51.132;16.848;2023-02-15T09:10:11;24.10;43.90
21425;DHT22;10873;51.132;16.848;2023-02-15T09:12:37;24.10;43.90
21425;DHT22;10873;51.132;16.848;2023-02-15T09:15:04;24.10;43.90
21425;DHT22;10873;51.132;16.848;2023-02-15T09:17:30;24.10;43.90
21425;DHT22;10873;51.132;16.848;2023-02-15T09:19:56;24.10;43.80
21425;DHT22;10873;51.132;16.848;2023-02-15T09:22:22;24.10;43.70
21425;DHT22;10873;51.132;16.848;2023-02-15T09:24:50;24.10;43.70
21425;DHT22;10873;51.132;16.848;2023-02-15T09:27:16;24.10;43.80
21425;DHT22;10873;51.132;16.848;2023-02-15T09:29:42;24.10;43.90
21425;DHT22;10873;51.132;16.848;2023-02-15T09:32:08;24.10;43.90
21425;DHT22;10873;51.132;16.848;2023-02-15T09:34:34;24.10;44.00
21425;DHT22;10873;51.132;16.848;2023-02-15T09:37:00;24.10;44.00
21425;DHT22;10873;51.132;16.848;2023-02-15T09:39:26;24.10;43.90
21425;DHT22;10873;51.132;16.848;2023-02-15T09:42:24;24.10;43.90
21425;DHT22;10873;51.132;16.848;2023-02-15T09:45:21;24.10;43.90
21425;DHT22;10873;51.132;16.848;2023-02-15T09:48:16;24.20;44.00
21425;DHT22;10873;51.132;16.848;2023-02-15T09:50:54;24.20;44.00
21425;DHT22;10873;51.132;16.848;2023-02-15T09:53:44;24.20;44.00
21425;DHT22;10873;51.132;16.848;2023-02-15T09:56:16;24.20;44.10
21425;DHT22;10873;51.132;16.848;2023-02-15T09:58:53;24.20;44.10
21425;DHT22;10873;51.132;16.848;2023-02-15T10:01:30;24.20;44.20
21425;DHT22;10873;51.132;16.848;2023-02-15T10:04:14;24.20;44.20
21425;DHT22;10873;51.132;16.848;2023-02-15T10:06:55;24.20;44.20
21425;DHT22;10873;51.132;16.848;2023-02-15T10:09:39;24.20;44.20
21425;DHT22;10873;51.132;16.848;2023-02-15T10:12:23;24.20;44.20
21425;DHT22;10873;51.132;16.848;2023-02-15T10:15:06;24.20;44.20
21425;DHT22;10873;51.132;16.848;2023-02-15T10:17:46;24.20;44.00
21425;DHT22;10873;51.132;16.848;2023-02-15T10:20:24;24.20;43.90
21425;DHT22;10873;51.132;16.848;2023-02-15T10:23:08;24.20;43.70
21425;DHT22;10873;51.132;16.848;2023-02-15T10:25:43;24.20;43.80
21425;DHT22;10873;51.132;16.848;2023-02-15T10:28:16;24.20;43.70
21425;DHT22;10873;51.132;16.848;2023-02-15T10:30:47;24.20;43.70
21425;DHT22;10873;51.132;16.848;2023-02-15T10:33:23;24.20;43.70
21425;DHT22;10873;51.132;16.848;2023-02-15T10:35:59;24.20;43.70
21425;DHT22;10873;51.132;16.848;2023-02-15T10:38:31;24.20;43.70
21425;DHT22;10873;51.132;16.848;2023-02-15T10:41:10;24.20;43.60
21425;DHT22;10873;51.132;16.848;2023-02-15T10:43:47;24.30;43.50
21425;DHT22;10873;51.132;16.848;2023-02-15T10:46:28;24.30;43.60
21425;DHT22;10873;51.132;16.848;2023-02-15T10:49:16;24.30;43.60
21425;DHT22;10873;51.132;16.848;2023-02-15T10:51:54;24.30;43.60
21425;DHT22;10873;51.132;16.848;2023-02-15T10:54:31;24.30;43.50
21425;DHT22;10873;51.132;16.848;2023-02-15T10:57:06;24.30;43.60
21425;DHT22;10873;51.132;16.848;2023-02-15T10:59:50;24.30;43.50
21425;DHT22;10873;51.132;16.848;2023-02-15T11:02:25;24.40;43.70
21425;DHT22;10873;51.132;16.848;2023-02-15T11:05:02;24.40;43.70
21425;DHT22;10873;51.132;16.848;2023-02-15T11:07:37;24.40;43.70
21425;DHT22;10873;51.132;16.848;2023-02-15T11:10:18;24.40;43.70
21425;DHT22;10873;51.132;16.848;2023-02-15T11:12:48;24.40;43.80
21425;DHT22;10873;51.132;16.848;2023-02-15T11:15:18;24.40;43.80
21425;DHT22;10873;51.132;16.848;2023-02-15T11:17:49;24.40;44.00
21425;DHT22;10873;51.132;16.848;2023-02-15T11:20:21;24.40;44.20
21425;DHT22;10873;51.132;16.848;2023-02-15T11:22:50;24.40;44.30
21425;DHT22;10873;51.132;16.848;2023-02-15T11:25:30;24.40;44.30
21425;DHT22;10873;51.132;16.848;2023-02-15T11:27:57;24.40;44.30
21425;DHT22;10873;51.132;16.848;2023-02-15T11:30:25;24.40;44.60
21425;DHT22;10873;51.132;16.848;2023-02-15T11:32:57;24.40;44.70
21425;DHT22;10873;51.132;16.848;2023-02-15T11:35:28;24.40;44.70
21425;DHT22;10873;51.132;16.848;2023-02-15T11:38:01;24.40;45.50
21425;DHT22;10873;51.132;16.848;2023-02-15T11:40:33;24.40;44.80
21425;DHT22;10873;51.132;16.848;2023-02-15T11:43:05;24.40;44.90
21425;DHT22;10873;51.132;16.848;2023-02-15T11:45:33;24.40;44.80
21425;DHT22;10873;51.132;16.848;2023-02-15T11:48:08;24.40;45.00
21425;DHT22;10873;51.132;16.848;2023-02-15T11:50:35;24.40;44.90
21425;DHT22;10873;51.132;16.848;2023-02-15T11:53:04;24.40;45.00
21425;DHT22;10873;51.132;16.848;2023-02-15T11:55:31;24.40;45.10
21425;DHT22;10873;51.132;16.848;2023-02-15T11:58:02;24.40;45.20
21425;DHT22;10873;51.132;16.848;2023-02-15T12:00:33;24.40;45.20
21425;DHT22;10873;51.132;16.848;2023-02-15T12:03:09;24.40;45.20
21425;DHT22;10873;51.132;16.848;2023-02-15T12:05:41;24.40;45.20
21425;DHT22;10873;51.132;16.848;2023-02-15T12:08:15;24.40;45.20
21425;DHT22;10873;51.132;16.848;2023-02-15T12:10:46;24.40;45.20
21425;DHT22;10873;51.132;16.848;2023-02-15T12:13:17;24.40;45.20
21425;DHT22;10873;51.132;16.848;2023-02-15T12:15:45;24.40;45.20
21425;DHT22;10873;51.132;16.848;2023-02-15T12:18:20;24.40;45.20
21425;DHT22;10873;51.132;16.848;2023-02-15T12:20:48;24.40;45.20
21425;DHT22;10873;51.132;16.848;2023-02-15T12:23:15;24.40;45.20
21425;DHT22;10873;51.132;16.848;2023-02-15T12:25:49;24.40;45.30
21425;DHT22;10873;51.132;16.848;2023-02-15T12:28:24;24.40;45.20
21425;DHT22;10873;51.132;16.848;2023-02-15T12:30:52;24.40;45.20
21425;DHT22;10873;51.132;16.848;2023-02-15T12:33:26;24.40;45.30
21425;DHT22;10873;51.132;16.848;2023-02-15T12:35:57;24.40;45.20
21425;DHT22;10873;51.132;16.848;2023-02-15T12:38:27;24.40;45.30
21425;DHT22;10873;51.132;16.848;2023-02-15T12:40:58;24.40;45.40
21425;DHT22;10873;51.132;16.848;2023-02-15T12:43:26;24.40;45.40
21425;DHT22;10873;51.132;16.848;2023-02-15T12:45:52;24.50;46.40
21425;DHT22;10873;51.132;16.848;2023-02-15T12:48:20;24.50;47.40
21425;DHT22;10873;51.132;16.848;2023-02-15T12:50:49;24.40;46.10
21425;DHT22;10873;51.132;16.848;2023-02-15T12:53:17;24.30;46.20
21425;DHT22;10873;51.132;16.848;2023-02-15T12:55:51;24.20;45.20
21425;DHT22;10873;51.132;16.848;2023-02-15T12:58:19;24.00;45.70
21425;DHT22;10873;51.132;16.848;2023-02-15T13:00:46;23.90;45.50
21425;DHT22;10873;51.132;16.848;2023-02-15T13:03:17;23.80;45.60
21425;DHT22;10873;51.132;16.848;2023-02-15T13:05:44;23.70;46.20
21425;DHT22;10873;51.132;16.848;2023-02-15T13:08:16;23.60;46.20
21425;DHT22;10873;51.132;16.848;2023-02-15T13:10:53;23.50;46.60
21425;DHT22;10873;51.132;16.848;2023-02-15T13:13:22;23.50;46.30
21425;DHT22;10873;51.132;16.848;2023-02-15T13:15:51;23.40;46.60
21425;DHT22;10873;51.132;16.848;2023-02-15T13:18:28;23.40;46.40
21425;DHT22;10873;51.132;16.848;2023-02-15T13:20:54;23.30;45.70
21425;DHT22;10873;51.132;16.848;2023-02-15T13:23:26;23.20;46.50
21425;DHT22;10873;51.132;16.848;2023-02-15T13:25:57;23.20;46.70
21425;DHT22;10873;51.132;16.848;2023-02-15T13:28:27;23.10;46.10
21425;DHT22;10873;51.132;16.848;2023-02-15T13:30:56;23.10;47.00
21425;DHT22;10873;51.132;16.848;2023-02-15T13:33:26;23.10;47.20
21425;DHT22;10873;51.132;16.848;2023-02-15T13:36:01;23.00;47.40
21425;DHT22;10873;51.132;16.848;2023-02-15T13:38:44;23.00;47.30
21425;DHT22;10873;51.132;16.848;2023-02-15T13:41:14;23.00;47.10
21425;DHT22;10873;51.132;16.848;2023-02-15T13:43:50;23.00;47.10
21425;DHT22;10873;51.132;16.848;2023-02-15T13:46:28;22.90;47.20
21425;DHT22;10873;51.132;16.848;2023-02-15T13:49:09;22.90;47.40
21425;DHT22;10873;51.132;16.848;2023-02-15T13:51:43;22.90;47.50
21425;DHT22;10873;51.132;16.848;2023-02-15T13:54:32;22.80;46.20
21425;DHT22;10873;51.132;16.848;2023-02-15T13:57:11;22.70;45.40
21425;DHT22;10873;51.132;16.848;2023-02-15T13:59:53;22.60;44.90
21425;DHT22;10873;51.132;16.848;2023-02-15T14:02:38;22.50;45.00
21425;DHT22;10873;51.132;16.848;2023-02-15T14:05:21;22.40;45.10
21425;DHT22;10873;51.132;16.848;2023-02-15T14:07:58;22.30;45.20
21425;DHT22;10873;51.132;16.848;2023-02-15T14:10:45;22.30;45.60
21425;DHT22;10873;51.132;16.848;2023-02-15T14:13:38;22.20;46.00
21425;DHT22;10873;51.132;16.848;2023-02-15T14:16:10;22.20;46.00
21425;DHT22;10873;51.132;16.848;2023-02-15T14:18:41;22.20;45.70
21425;DHT22;10873;51.132;16.848;2023-02-15T14:21:13;22.20;45.80
21425;DHT22;10873;51.132;16.848;2023-02-15T14:23:57;22.20;46.50
21425;DHT22;10873;51.132;16.848;2023-02-15T14:26:32;22.30;47.60
21425;DHT22;10873;51.132;16.848;2023-02-15T14:29:12;22.30;47.90
21425;DHT22;10873;51.132;16.848;2023-02-15T14:31:43;22.40;47.90
21425;DHT22;10873;51.132;16.848;2023-02-15T14:34:20;22.40;47.90
21425;DHT22;10873;51.132;16.848;2023-02-15T14:36:49;22.50;48.00
21425;DHT22;10873;51.132;16.848;2023-02-15T14:39:22;22.50;48.00
21425;DHT22;10873;51.132;16.848;2023-02-15T14:42:15;22.50;47.90
21425;DHT22;10873;51.132;16.848;2023-02-15T14:44:46;22.60;47.90
21425;DHT22;10873;51.132;16.848;2023-02-15T14:47:18;22.60;47.90
21425;DHT22;10873;51.132;16.848;2023-02-15T14:49:44;22.70;48.00
21425;DHT22;10873;51.132;16.848;2023-02-15T14:52:12;22.70;48.10
21425;DHT22;10873;51.132;16.848;2023-02-15T14:54:55;22.70;48.10
21425;DHT22;10873;51.132;16.848;2023-02-15T14:57:25;22.70;48.20
21425;DHT22;10873;51.132;16.848;2023-02-15T14:59:54;22.70;48.20
21425;DHT22;10873;51.132;16.848;2023-02-15T15:02:25;22.80;48.40
21425;DHT22;10873;51.132;16.848;2023-02-15T15:04:58;22.80;48.40
21425;DHT22;10873;51.132;16.848;2023-02-15T15:07:27;22.80;49.00
21425;DHT22;10873;51.132;16.848;2023-02-15T15:10:03;22.80;48.40
21425;DHT22;10873;51.132;16.848;2023-02-15T15:12:44;22.80;48.50
21425;DHT22;10873;51.132;16.848;2023-02-15T15:15:13;22.90;48.50
21425;DHT22;10873;51.132;16.848;2023-02-15T15:17:57;22.90;48.50
21425;DHT22;10873;51.132;16.848;2023-02-15T15:20:42;22.90;48.50
21425;DHT22;10873;51.132;16.848;2023-02-15T15:23:41;22.90;48.50
21425;DHT22;10873;51.132;16.848;2023-02-15T15:26:32;22.90;48.10
21425;DHT22;10873;51.132;16.848;2023-02-15T15:29:05;22.90;47.50
21425;DHT22;10873;51.132;16.848;2023-02-15T15:31:39;22.90;47.90
21425;DHT22;10873;51.132;16.848;2023-02-15T15:34:28;22.90;47.60
21425;DHT22;10873;51.132;16.848;2023-02-15T15:37:42;22.90;47.30
21425;DHT22;10873;51.132;16.848;2023-02-15T15:40:32;22.80;47.00
21425;DHT22;10873;51.132;16.848;2023-02-15T15:43:32;22.80;47.00
21425;DHT22;10873;51.132;16.848;2023-02-15T15:46:14;22.70;47.60
21425;DHT22;10873;51.132;16.848;2023-02-15T15:48:42;22.70;47.80
21425;DHT22;10873;51.132;16.848;2023-02-15T15:51:13;22.60;48.00
21425;DHT22;10873;51.132;16.848;2023-02-15T15:53:42;22.50;47.90